createdAt,value
2022-12-20T00:00:26.778Z,23.540000
2022-12-20T00:05:28.693Z,23.540000
2022-12-20T00:10:31.269Z,23.540000
2022-12-20T00:15:33.586Z,23.540000
2022-12-20T00:20:35.805Z,23.456000
2022-12-20T00:25:18.072Z,23.540000
2022-12-20T00:30:21.052Z,23.396000
2022-12-20T00:35:23.515Z,23.360000
2022-12-20T00:40:25.438Z,23.372000
2022-12-20T00:45:27.961Z,23.456000
2022-12-20T00:50:30.877Z,23.456000
2022-12-20T00:55:32.637Z,23.432000
2022-12-20T01:00:35.810Z,23.348000
2022-12-20T01:05:18.294Z,23.108000
2022-12-20T01:10:21.672Z,22.820000
2022-12-20T01:15:23.952Z,22.871429
2022-12-20T01:20:27.483Z,23.000000
2022-12-20T01:25:29.142Z,23.000000
2022-12-20T01:30:32.248Z,23.000000
2022-12-20T01:35:35.716Z,22.820000
2022-12-20T01:40:18.198Z,22.544000
2022-12-20T01:45:21.333Z,22.328000
2022-12-20T01:50:23.831Z,22.048571
2022-12-20T01:55:27.606Z,21.728000
2022-12-20T02:00:29.380Z,21.272000
2022-12-20T02:05:32.818Z,20.948000
2022-12-20T02:10:16.189Z,21.140000
2022-12-20T02:15:18.757Z,21.020000
2022-12-20T02:20:21.881Z,20.924000
2022-12-20T02:25:24.801Z,20.968571
2022-12-20T02:30:27.448Z,20.840000
2022-12-20T02:35:29.554Z,20.972000
2022-12-20T02:40:31.764Z,20.996000
2022-12-20T02:45:34.897Z,20.552000
2022-12-20T02:50:17.251Z,20.264000
2022-12-20T02:55:20.404Z,19.724000
2022-12-20T03:00:23.165Z,19.708571
2022-12-20T03:05:26.756Z,19.940000
2022-12-20T03:10:28.401Z,19.868000
2022-12-20T03:15:31.392Z,19.952000
2022-12-20T03:20:34.606Z,19.652000
2022-12-20T03:25:17.055Z,19.868000
2022-12-20T03:30:19.443Z,19.784000
2022-12-20T03:35:22.302Z,20.222857
2022-12-20T03:40:25.005Z,20.708000
2022-12-20T03:45:27.329Z,21.104000
2022-12-20T03:50:29.859Z,21.536000
2022-12-20T03:55:33.428Z,21.740000
2022-12-20T04:00:35.431Z,21.644000
2022-12-20T04:05:17.384Z,21.488000
2022-12-20T04:10:21.116Z,21.224000
2022-12-20T04:15:22.888Z,20.981429
2022-12-20T04:20:25.735Z,21.080000
2022-12-20T04:25:28.398Z,21.308000
2022-12-20T04:30:30.659Z,21.800000
2022-12-20T04:35:34.332Z,22.016000
2022-12-20T04:40:16.402Z,22.100000
2022-12-20T04:45:18.894Z,22.148000
2022-12-20T04:50:21.283Z,22.280000
2022-12-20T04:55:23.796Z,22.344286
2022-12-20T05:00:26.594Z,22.268000
2022-12-20T05:05:30.420Z,22.100000
2022-12-20T05:10:33.137Z,22.100000
2022-12-20T05:15:36.200Z,22.100000
2022-12-20T05:20:19.121Z,22.196000
2022-12-20T05:25:20.700Z,22.280000
2022-12-20T05:30:23.913Z,22.190000
2022-12-20T05:35:26.635Z,22.076000
2022-12-20T05:40:29.314Z,21.920000
2022-12-20T05:45:31.721Z,21.920000
2022-12-20T05:50:34.584Z,21.788000
2022-12-20T05:55:17.061Z,21.740000
2022-12-20T06:00:20.346Z,21.752000
2022-12-20T06:05:22.833Z,21.920000
2022-12-20T06:10:26.183Z,21.920000
2022-12-20T06:15:28.331Z,21.692000
2022-12-20T06:20:31.353Z,21.740000
2022-12-20T06:25:33.323Z,21.740000
2022-12-20T06:30:15.923Z,21.740000
2022-12-20T06:35:18.350Z,21.740000
2022-12-20T06:40:20.614Z,21.800000
2022-12-20T06:45:23.650Z,21.932857
2022-12-20T06:50:26.157Z,22.196000
2022-12-20T06:55:29.430Z,22.280000
2022-12-20T07:00:30.900Z,22.280000
2022-12-20T07:05:34.344Z,22.448000
2022-12-20T07:10:35.817Z,22.460000
2022-12-20T07:15:17.491Z,22.484000
2022-12-20T07:20:19.981Z,22.640000
2022-12-20T07:25:21.933Z,22.508000
2022-12-20T07:30:23.939Z,22.280000
2022-12-20T07:35:26.458Z,22.004000
2022-12-20T07:40:29.073Z,21.920000
2022-12-20T07:45:31.789Z,21.740000
2022-12-20T07:50:34.908Z,21.716000
2022-12-20T07:55:17.188Z,21.560000
2022-12-20T08:00:19.719Z,21.548000
2022-12-20T08:05:22.393Z,21.392857
2022-12-20T08:10:25.077Z,21.428000
2022-12-20T08:15:28.316Z,21.308000
2022-12-20T08:20:31.219Z,20.888000
2022-12-20T08:25:39.403Z,20.840000
2022-12-20T08:30:16.901Z,20.744000
2022-12-20T08:35:19.475Z,20.408000
2022-12-20T08:40:22.265Z,20.171429
2022-12-20T08:45:25.433Z,19.844000
2022-12-20T08:50:28.210Z,19.928000
2022-12-20T08:55:30.703Z,20.120000
2022-12-20T09:00:33.363Z,20.120000
2022-12-20T09:05:15.998Z,20.000000
2022-12-20T09:10:18.506Z,20.252000
2022-12-20T09:15:20.955Z,20.708000
2022-12-20T09:20:24.271Z,21.225714
2022-12-20T09:25:25.999Z,21.224000
2022-12-20T09:30:28.341Z,20.828000
2022-12-20T09:35:31.951Z,20.504000
2022-12-20T09:40:33.642Z,19.928000
2022-12-20T09:45:15.946Z,19.556000
2022-12-20T09:50:19.307Z,19.232000
2022-12-20T09:55:21.984Z,19.196000
2022-12-20T10:00:25.113Z,19.580000
2022-12-20T10:05:27.777Z,19.340000
2022-12-20T10:10:30.444Z,19.280000
2022-12-20T10:15:33.698Z,19.148000
2022-12-20T10:20:16.511Z,19.412000
2022-12-20T10:25:18.949Z,19.076000
2022-12-20T10:30:21.980Z,18.848000
2022-12-20T10:35:24.525Z,19.348571
2022-12-20T10:40:46.280Z,19.688000
2022-12-20T10:45:34.187Z,19.796000
2022-12-20T10:50:32.485Z,19.868000
2022-12-20T10:55:34.327Z,19.700000
2022-12-20T11:00:16.428Z,19.508000
2022-12-20T11:05:18.921Z,19.400000
2022-12-20T11:10:21.390Z,19.328000
2022-12-20T11:15:31.675Z,19.220000
2022-12-20T11:20:27.379Z,19.220000
2022-12-20T11:25:28.787Z,19.220000
2022-12-20T11:30:31.651Z,19.220000
2022-12-20T11:35:33.666Z,19.136000
2022-12-20T11:40:16.126Z,19.064000
2022-12-20T11:45:20.462Z,18.944000
2022-12-20T11:50:21.857Z,18.992000
2022-12-20T11:55:24.820Z,18.988571
2022-12-20T12:00:27.026Z,18.872000
2022-12-20T12:05:30.726Z,19.040000
2022-12-20T12:10:33.706Z,19.100000
2022-12-20T12:15:35.957Z,19.388000
2022-12-20T12:20:19.478Z,19.760000
2022-12-20T12:25:21.744Z,20.456000
2022-12-20T12:30:24.706Z,20.904286
2022-12-20T12:35:29.166Z,20.084000
2022-12-20T12:40:31.472Z,20.060000
2022-12-20T12:45:35.459Z,20.120000
2022-12-20T12:50:18.051Z,20.420000
2022-12-20T12:55:21.718Z,20.480000
2022-12-20T13:00:25.667Z,20.454286
2022-12-20T13:05:27.298Z,20.300000
2022-12-20T13:10:30.683Z,20.156000
2022-12-20T13:15:33.851Z,20.156000
2022-12-20T13:20:17.106Z,20.120000
2022-12-20T13:25:23.858Z,20.084000
2022-12-20T13:30:24.143Z,19.940000
2022-12-20T13:35:26.383Z,20.120000
2022-12-20T13:40:28.908Z,19.808000
2022-12-20T13:45:32.450Z,19.220000
2022-12-20T13:50:34.570Z,19.040000
2022-12-20T13:55:16.711Z,18.872000
2022-12-20T14:00:19.991Z,18.728000
2022-12-20T14:05:22.228Z,19.078571
2022-12-20T14:10:25.175Z,19.328000
2022-12-20T14:15:28.646Z,19.124000
2022-12-20T14:20:31.185Z,19.196000
2022-12-20T14:25:33.825Z,19.028000
2022-12-20T14:30:15.994Z,18.752000
2022-12-20T14:35:18.649Z,18.860000
2022-12-20T14:40:21.039Z,18.752000
2022-12-20T14:45:24.277Z,18.950000
2022-12-20T14:50:27.096Z,20.132000
2022-12-20T14:55:29.825Z,21.056000
2022-12-20T15:00:33.185Z,20.924000
2022-12-20T15:05:35.350Z,20.624000
2022-12-20T15:10:17.924Z,20.516000
2022-12-20T15:15:29.657Z,20.828000
2022-12-20T15:20:23.202Z,21.367143
2022-12-20T15:25:25.754Z,22.088000
2022-12-20T15:30:28.767Z,22.148000
2022-12-20T15:35:31.273Z,21.968000
2022-12-20T15:40:33.921Z,21.944000
2022-12-20T15:45:16.988Z,22.232000
2022-12-20T15:50:20.800Z,22.640000
2022-12-20T15:55:23.788Z,22.858571
2022-12-20T16:00:26.639Z,23.108000
2022-12-20T16:05:30.115Z,23.276000
2022-12-20T16:10:32.490Z,23.552000
2022-12-20T16:15:34.841Z,23.432000
2022-12-20T16:20:17.219Z,23.180000
2022-12-20T16:25:20.397Z,23.528000
2022-12-20T16:30:24.493Z,23.990000
2022-12-20T16:35:26.771Z,24.224000
2022-12-20T16:40:29.592Z,24.692000
2022-12-20T16:45:31.969Z,24.968000
2022-12-20T16:50:34.090Z,25.100000
2022-12-20T16:55:17.063Z,25.376000
2022-12-20T17:00:19.575Z,24.992000
2022-12-20T17:05:22.304Z,25.160000
2022-12-20T17:10:25.234Z,25.472000
2022-12-20T17:15:27.647Z,25.304000
2022-12-20T17:20:35.109Z,25.580000
2022-12-20T17:25:33.196Z,25.496000
2022-12-20T17:30:35.604Z,25.844000
2022-12-20T17:35:18.197Z,25.556000
2022-12-20T17:40:20.428Z,25.784000
2022-12-20T17:45:23.328Z,25.931429
2022-12-20T17:50:28.500Z,26.060000
2022-12-20T17:55:32.275Z,26.468000
2022-12-20T18:00:38.862Z,26.468000
2022-12-20T18:05:35.617Z,26.552000
2022-12-20T18:10:18.190Z,26.324000
2022-12-20T18:15:22.001Z,26.408000
2022-12-20T18:20:23.527Z,26.175714
2022-12-20T18:25:26.149Z,26.504000
2022-12-20T18:30:28.433Z,26.432000
2022-12-20T18:35:30.798Z,26.420000
2022-12-20T18:40:33.390Z,26.780000
2022-12-20T18:45:35.585Z,26.780000
2022-12-20T18:50:18.091Z,26.984000
2022-12-20T18:55:21.236Z,27.284000
2022-12-20T19:00:24.202Z,27.512857
2022-12-20T19:05:26.402Z,28.028000
2022-12-20T19:10:29.118Z,28.220000
2022-12-20T19:15:31.674Z,28.292000
2022-12-20T19:20:33.988Z,28.184000
2022-12-20T19:25:17.469Z,28.160000
2022-12-20T19:30:18.899Z,28.448000
2022-12-20T19:35:53.381Z,28.448000
2022-12-20T19:40:23.684Z,27.975714
2022-12-20T19:45:26.668Z,28.280000
2022-12-20T19:50:29.748Z,28.640000
2022-12-20T19:55:32.498Z,28.760000
2022-12-20T20:00:34.811Z,29.000000
2022-12-20T20:05:16.798Z,29.012000
2022-12-20T20:10:19.767Z,29.552000
2022-12-20T20:15:22.656Z,30.032857
2022-12-20T20:20:25.361Z,30.200000
2022-12-20T20:25:27.908Z,30.344000
2022-12-20T20:30:30.518Z,30.836000
2022-12-20T20:35:33.802Z,30.656000
2022-12-20T20:40:17.712Z,30.788000
2022-12-20T20:45:19.336Z,30.920000
2022-12-20T20:50:22.541Z,31.074286
2022-12-20T20:55:25.297Z,32.036000
2022-12-20T21:00:27.986Z,32.108000
2022-12-20T21:06:37.261Z,32.000000
2022-12-20T21:10:33.650Z,32.012000
2022-12-20T21:15:36.116Z,31.496000
2022-12-20T21:20:23.851Z,31.076000
2022-12-20T21:25:20.797Z,30.968000
2022-12-20T21:30:23.140Z,30.585714
2022-12-20T21:35:25.917Z,30.368000
2022-12-20T21:40:30.625Z,30.332000
2022-12-20T21:45:30.787Z,30.716000
2022-12-20T21:50:33.623Z,30.560000
2022-12-20T21:55:16.069Z,30.380000
2022-12-20T22:00:18.654Z,30.488000
2022-12-20T22:05:21.238Z,30.560000
2022-12-20T22:10:24.073Z,30.534286
2022-12-20T22:15:27.748Z,30.416000
2022-12-20T22:20:29.127Z,30.320000
2022-12-20T22:25:31.744Z,30.380000
2022-12-20T22:30:34.500Z,30.488000
2022-12-20T22:35:22.499Z,30.380000
2022-12-20T22:40:19.552Z,30.488000
2022-12-20T22:45:22.482Z,30.740000
2022-12-20T22:50:25.402Z,30.812000
2022-12-20T22:55:29.116Z,30.932000
2022-12-20T23:00:31.047Z,31.100000
2022-12-20T23:05:34.757Z,31.196000
2022-12-20T23:10:17.568Z,31.280000
2022-12-20T23:15:20.402Z,31.280000
2022-12-20T23:20:22.967Z,31.511429
2022-12-20T23:25:25.424Z,31.172000
2022-12-20T23:30:28.161Z,31.100000
2022-12-20T23:35:31.184Z,31.280000
2022-12-20T23:40:33.954Z,31.184000
2022-12-20T23:45:16.449Z,30.980000
2022-12-20T23:50:19.816Z,30.920000
2022-12-20T23:55:23.975Z,30.997143
